createdAt,value
2022-11-27T00:00:18.017Z,99225.78
2022-11-27T00:02:45.076Z,99226.78
2022-11-27T00:05:12.127Z,99214.41
2022-11-27T00:07:39.031Z,99213.69
2022-11-27T00:10:06.909Z,99213.72
2022-11-27T00:12:33.820Z,99217.34
2022-11-27T00:15:00.781Z,99210.47
2022-11-27T00:17:27.656Z,99211.62
2022-11-27T00:19:54.533Z,99219.38
2022-11-27T00:22:21.412Z,99215.47
2022-11-27T00:24:48.313Z,99217.91
2022-11-27T00:27:15.200Z,99214.47
2022-11-27T00:29:42.086Z,99218.88
2022-11-27T00:32:09.207Z,99208.37
2022-11-27T00:34:36.180Z,99220.66
2022-11-27T00:37:03.106Z,99217.75
2022-11-27T00:39:30.064Z,99224.88
2022-11-27T00:41:57.034Z,99235.69
2022-11-27T00:44:23.980Z,99232.53
2022-11-27T00:46:50.942Z,99224.37
2022-11-27T00:49:17.899Z,99223.97
2022-11-27T00:51:44.812Z,99228.50
2022-11-27T00:54:11.742Z,99234.47
2022-11-27T00:56:40.090Z,99238.72
2022-11-27T00:59:08.324Z,99245.03
2022-11-27T01:01:37.771Z,99240.94
2022-11-27T01:04:06.794Z,99240.97
2022-11-27T01:06:33.811Z,99242.22
2022-11-27T01:09:00.904Z,99242.09
2022-11-27T01:11:31.062Z,99238.56
2022-11-27T01:13:59.971Z,99237.41
2022-11-27T01:16:29.420Z,99238.22
2022-11-27T01:19:00.674Z,99237.22
2022-11-27T01:21:30.769Z,99236.38
2022-11-27T01:23:57.685Z,99236.53
2022-11-27T01:26:24.661Z,99226.44
2022-11-27T01:28:56.742Z,99225.66
2022-11-27T01:31:30.127Z,99225.09
2022-11-27T01:33:59.247Z,99220.22
2022-11-27T01:36:26.762Z,99213.69
2022-11-27T01:38:53.804Z,99216.09
2022-11-27T01:41:32.328Z,99215.78
2022-11-27T01:44:03.270Z,99217.88
2022-11-27T01:46:44.657Z,99223.25
2022-11-27T01:49:11.504Z,99223.28
2022-11-27T01:51:41.178Z,99227.44
2022-11-27T01:54:09.660Z,99220.22
2022-11-27T01:56:37.007Z,99227.91
2022-11-27T01:59:04.337Z,99224.00
2022-11-27T02:01:31.228Z,99225.97
2022-11-27T02:03:59.705Z,99223.66
2022-11-27T02:06:27.376Z,99230.19
2022-11-27T02:08:54.465Z,99221.88
2022-11-27T02:11:39.633Z,99217.78
2022-11-27T02:14:39.163Z,99221.06
2022-11-27T02:17:30.933Z,99213.28
2022-11-27T02:20:12.933Z,99217.63
2022-11-27T02:22:46.157Z,99216.91
2022-11-27T02:25:33.640Z,99214.16
2022-11-27T02:28:00.488Z,99227.12
2022-11-27T02:30:28.542Z,99218.81
2022-11-27T02:33:00.373Z,99225.06
2022-11-27T02:35:32.523Z,99226.94
2022-11-27T02:38:23.324Z,99228.09
2022-11-27T02:40:59.387Z,99225.66
2022-11-27T02:43:39.695Z,99216.44
2022-11-27T02:46:08.683Z,99217.09
2022-11-27T02:48:49.226Z,99225.50
2022-11-27T02:51:18.447Z,99225.50
2022-11-27T02:54:06.298Z,99225.09
2022-11-27T02:56:34.784Z,99223.69
2022-11-27T02:59:07.827Z,99221.19
2022-11-27T03:01:43.151Z,99224.13
2022-11-27T03:04:17.046Z,99231.34
2022-11-27T03:06:50.648Z,99231.94
2022-11-27T03:09:20.398Z,99232.94
2022-11-27T03:11:47.778Z,99234.00
2022-11-27T03:14:15.304Z,99224.63
2022-11-27T03:17:03.820Z,99234.19
2022-11-27T03:19:52.100Z,99233.88
2022-11-27T03:22:19.278Z,99229.56
2022-11-27T03:24:46.214Z,99230.13
2022-11-27T03:27:15.892Z,99231.41
2022-11-27T03:29:49.252Z,99236.59
2022-11-27T03:32:16.898Z,99234.00
2022-11-27T03:34:43.875Z,99223.16
2022-11-27T03:37:10.828Z,99231.34
2022-11-27T03:39:37.775Z,99230.78
2022-11-27T03:42:13.764Z,99222.13
2022-11-27T03:44:43.585Z,99225.56
2022-11-27T03:47:22.690Z,99221.63
2022-11-27T03:50:12.261Z,99223.22
2022-11-27T03:52:41.850Z,99220.81
2022-11-27T03:55:13.777Z,99212.12
2022-11-27T03:58:05.280Z,99215.53
2022-11-27T04:00:36.436Z,99211.34
2022-11-27T04:03:04.730Z,99215.34
2022-11-27T04:05:31.682Z,99219.31
2022-11-27T04:07:58.633Z,99213.06
2022-11-27T04:10:25.563Z,99219.06
2022-11-27T04:12:52.464Z,99217.25
2022-11-27T04:15:19.400Z,99216.22
2022-11-27T04:17:46.277Z,99215.50
2022-11-27T04:20:16.486Z,99216.69
2022-11-27T04:22:43.364Z,99217.50
2022-11-27T04:25:10.245Z,99213.53
2022-11-27T04:27:37.115Z,99212.53
2022-11-27T04:30:04.830Z,99218.31
2022-11-27T04:32:31.709Z,99215.19
2022-11-27T04:34:58.560Z,99212.06
2022-11-27T04:37:25.699Z,99207.03
2022-11-27T04:39:52.601Z,99208.44
2022-11-27T04:42:19.463Z,99206.72
2022-11-27T04:44:46.199Z,99200.59
2022-11-27T04:47:13.046Z,99194.41
2022-11-27T04:49:39.760Z,99192.09
2022-11-27T04:52:06.896Z,99190.50
2022-11-27T04:54:33.829Z,99183.38
2022-11-27T04:57:00.707Z,99185.47
2022-11-27T04:59:27.614Z,99182.25
2022-11-27T05:01:54.585Z,99188.03
2022-11-27T05:04:22.144Z,99186.91
2022-11-27T05:06:49.220Z,99185.84
2022-11-27T05:09:18.355Z,99184.66
2022-11-27T05:11:45.406Z,99178.44
2022-11-27T05:14:15.298Z,99175.91
2022-11-27T05:16:43.201Z,99171.97
2022-11-27T05:19:11.170Z,99172.31
2022-11-27T05:21:38.382Z,99174.66
2022-11-27T05:24:05.732Z,99177.69
2022-11-27T05:26:32.784Z,99178.75
2022-11-27T05:29:00.809Z,99180.09
2022-11-27T05:31:28.039Z,99173.81
2022-11-27T05:33:55.004Z,99176.47
2022-11-27T05:36:21.984Z,99176.94
2022-11-27T05:38:48.889Z,99173.56
2022-11-27T05:41:15.754Z,99178.34
2022-11-27T05:43:42.764Z,99174.59
2022-11-27T05:46:11.956Z,99173.97
2022-11-27T05:48:38.999Z,99168.25
2022-11-27T05:51:06.227Z,99173.44
2022-11-27T05:53:33.604Z,99179.63
2022-11-27T05:56:14.911Z,99179.03
2022-11-27T05:58:43.479Z,99174.72
2022-11-27T06:01:11.777Z,99178.91
2022-11-27T06:03:41.616Z,99175.19
2022-11-27T06:06:10.589Z,99166.47
2022-11-27T06:08:38.327Z,99169.75
2022-11-27T06:11:16.639Z,99175.12
2022-11-27T06:13:43.586Z,99163.84
2022-11-27T06:16:21.893Z,99169.94
2022-11-27T06:18:53.430Z,99167.47
2022-11-27T06:21:21.383Z,99176.78
2022-11-27T06:23:48.268Z,99173.91
2022-11-27T06:26:20.865Z,99176.97
2022-11-27T06:28:48.479Z,99178.09
2022-11-27T06:31:18.409Z,99168.41
2022-11-27T06:33:46.671Z,99177.31
2022-11-27T06:36:13.676Z,99174.06
2022-11-27T06:38:40.698Z,99177.28
2022-11-27T06:41:10.092Z,99165.47
2022-11-27T06:43:37.168Z,99170.75
2022-11-27T06:46:05.879Z,99172.28
2022-11-27T06:48:33.864Z,99173.19
2022-11-27T06:51:05.214Z,99171.44
2022-11-27T06:53:34.763Z,99176.97
2022-11-27T06:56:09.753Z,99176.78
2022-11-27T06:58:37.251Z,99180.22
2022-11-27T07:01:06.674Z,99193.66
2022-11-27T07:03:33.803Z,99191.00
2022-11-27T07:06:01.753Z,99192.19
2022-11-27T07:08:29.033Z,99196.94
2022-11-27T07:11:02.212Z,99204.00
2022-11-27T07:13:30.677Z,99211.50
2022-11-27T07:16:02.060Z,99220.22
2022-11-27T07:18:30.319Z,99214.63
2022-11-27T07:20:57.229Z,99216.56
2022-11-27T07:23:24.106Z,99223.28
2022-11-27T07:25:51.007Z,99219.47
2022-11-27T07:28:19.178Z,99215.59
2022-11-27T07:30:46.634Z,99216.16
2022-11-27T07:33:13.464Z,99212.50
2022-11-27T07:35:40.313Z,99211.38
2022-11-27T07:38:07.169Z,99210.44
2022-11-27T07:40:34.042Z,99221.88
2022-11-27T07:43:00.953Z,99222.81
2022-11-27T07:45:27.907Z,99222.81
2022-11-27T07:47:54.846Z,99223.66
2022-11-27T07:50:22.006Z,99231.59
2022-11-27T07:52:48.881Z,99228.22
2022-11-27T07:55:15.814Z,99234.22
2022-11-27T07:57:42.726Z,99240.94
2022-11-27T08:00:10.593Z,99225.81
2022-11-27T08:02:37.537Z,99232.06
2022-11-27T08:05:09.513Z,99229.25
2022-11-27T08:07:38.041Z,99229.81
2022-11-27T08:10:05.523Z,99220.34
2022-11-27T08:12:32.379Z,99227.19
2022-11-27T08:14:59.297Z,99227.72
2022-11-27T08:17:26.234Z,99227.94
2022-11-27T08:19:53.097Z,99234.38
2022-11-27T08:22:20.876Z,99229.91
2022-11-27T08:24:48.343Z,99231.81
2022-11-27T08:27:16.432Z,99237.16
2022-11-27T08:29:43.449Z,99241.47
2022-11-27T08:32:11.398Z,99241.31
2022-11-27T08:34:38.452Z,99229.31
2022-11-27T08:37:06.579Z,99230.25
2022-11-27T08:39:33.768Z,99237.00
2022-11-27T08:42:00.870Z,99236.13
2022-11-27T08:44:27.873Z,99236.06
2022-11-27T08:46:54.760Z,99235.94
2022-11-27T08:49:21.844Z,99232.16
2022-11-27T08:51:48.728Z,99240.94
2022-11-27T08:54:15.616Z,99243.44
2022-11-27T08:56:42.542Z,99237.41
2022-11-27T08:59:09.456Z,99237.38
2022-11-27T09:01:36.433Z,99234.34
2022-11-27T09:04:03.438Z,99228.34
2022-11-27T09:06:32.034Z,99230.25
2022-11-27T09:09:05.519Z,99228.66
2022-11-27T09:11:33.493Z,99225.16
2022-11-27T09:14:01.587Z,99238.66
2022-11-27T09:16:30.330Z,99236.63
2022-11-27T09:18:57.916Z,99217.63
2022-11-27T09:21:30.554Z,99224.16
2022-11-27T09:24:01.823Z,99228.97
2022-11-27T09:26:29.665Z,99227.34
2022-11-27T09:28:58.471Z,99231.53
2022-11-27T09:31:26.300Z,99233.91
2022-11-27T09:33:53.486Z,99225.44
2022-11-27T09:36:23.082Z,99227.97
2022-11-27T09:38:50.322Z,99225.25
2022-11-27T09:41:20.169Z,99227.16
2022-11-27T09:44:00.586Z,99224.13
2022-11-27T09:46:37.529Z,99215.37
2022-11-27T09:49:08.051Z,99215.16
2022-11-27T09:51:44.593Z,99223.66
2022-11-27T09:54:29.104Z,99219.75
2022-11-27T09:56:56.580Z,99213.78
2022-11-27T09:59:28.556Z,99219.38
2022-11-27T10:01:55.670Z,99216.19
2022-11-27T10:04:22.700Z,99212.06
2022-11-27T10:07:46.754Z,99208.44
2022-11-27T10:10:40.954Z,99204.16
2022-11-27T10:13:14.877Z,99202.19
2022-11-27T10:15:58.601Z,99194.44
2022-11-27T10:18:35.011Z,99197.84
2022-11-27T10:21:08.815Z,99192.28
2022-11-27T10:24:17.117Z,99199.69
2022-11-27T10:26:47.262Z,99192.19
2022-11-27T10:29:34.054Z,99184.16
2022-11-27T10:32:46.663Z,99180.78
2022-11-27T10:35:06.323Z,99175.84
2022-11-27T10:37:47.221Z,99175.28
2022-11-27T10:40:14.150Z,99170.28
2022-11-27T10:43:04.876Z,99169.72
2022-11-27T10:46:18.196Z,99170.50
2022-11-27T10:48:45.202Z,99162.91
2022-11-27T10:51:15.965Z,99165.94
2022-11-27T10:53:43.455Z,99155.91
2022-11-27T10:56:17.321Z,99155.44
2022-11-27T10:59:19.989Z,99151.78
2022-11-27T11:01:49.708Z,99152.12
2022-11-27T11:04:37.412Z,99152.28
2022-11-27T11:07:23.619Z,99143.12
2022-11-27T11:09:50.563Z,99142.09
2022-11-27T11:12:21.370Z,99138.72
2022-11-27T11:14:53.054Z,99142.41
2022-11-27T11:17:28.675Z,99141.59
2022-11-27T11:19:55.744Z,99127.81
2022-11-27T11:22:22.813Z,99133.00
2022-11-27T11:24:52.093Z,99129.94
2022-11-27T11:27:30.469Z,99120.59
2022-11-27T11:30:05.900Z,99122.03
2022-11-27T11:32:35.403Z,99127.66
2022-11-27T11:35:05.327Z,99113.56
2022-11-27T11:37:34.141Z,99114.50
2022-11-27T11:40:00.931Z,99114.00
2022-11-27T11:42:31.503Z,99108.25
2022-11-27T11:45:18.430Z,99117.44
2022-11-27T11:47:46.606Z,99116.22
2022-11-27T11:50:15.389Z,99107.13
2022-11-27T11:53:19.544Z,99108.31
2022-11-27T11:56:20.262Z,99096.41
2022-11-27T11:58:54.591Z,99099.19
2022-11-27T12:01:57.269Z,99093.63
2022-11-27T12:04:36.214Z,99084.47
2022-11-27T12:07:34.283Z,99088.00
2022-11-27T12:10:16.882Z,99081.50
2022-11-27T12:12:59.300Z,99070.81
2022-11-27T12:15:45.534Z,99068.97
2022-11-27T12:18:23.069Z,99070.22
2022-11-27T12:21:12.837Z,99056.87
2022-11-27T12:23:57.282Z,99054.44
2022-11-27T12:26:24.115Z,99059.84
2022-11-27T12:29:02.928Z,99057.38
2022-11-27T12:31:41.963Z,99055.06
2022-11-27T12:34:24.070Z,99053.28
2022-11-27T12:37:17.009Z,99059.94
2022-11-27T12:40:02.509Z,99062.69
2022-11-27T12:42:36.418Z,99061.38
2022-11-27T12:45:22.243Z,99058.59
2022-11-27T12:48:21.016Z,99064.22
2022-11-27T12:50:55.410Z,99062.69
2022-11-27T12:53:36.405Z,99064.41
2022-11-27T12:56:10.526Z,99062.44
2022-11-27T12:58:46.092Z,99059.59
2022-11-27T13:01:18.795Z,99052.22
2022-11-27T13:04:18.393Z,99052.97
2022-11-27T13:07:03.639Z,99046.81
2022-11-27T13:09:51.605Z,99044.81
2022-11-27T13:12:24.929Z,99036.47
2022-11-27T13:14:57.139Z,99045.44
2022-11-27T13:17:36.051Z,99042.63
2022-11-27T13:20:04.496Z,99051.81
2022-11-27T13:22:34.866Z,99040.13
2022-11-27T13:25:02.779Z,99048.13
2022-11-27T13:27:31.682Z,99041.97
2022-11-27T13:30:01.830Z,99044.78
2022-11-27T13:32:28.682Z,99048.50
2022-11-27T13:34:58.080Z,99045.56
2022-11-27T13:37:32.054Z,99043.72
2022-11-27T13:40:01.328Z,99038.94
2022-11-27T13:42:29.081Z,99034.22
2022-11-27T13:45:01.288Z,99046.34
2022-11-27T13:47:30.763Z,99049.91
2022-11-27T13:50:12.187Z,99035.91
2022-11-27T13:52:51.294Z,99032.59
2022-11-27T13:55:32.739Z,99044.22
2022-11-27T13:58:01.281Z,99045.34
2022-11-27T14:00:40.523Z,99040.75
2022-11-27T14:03:10.801Z,99043.91
2022-11-27T14:05:43.791Z,99046.22
2022-11-27T14:08:36.644Z,99043.53
2022-11-27T14:11:13.277Z,99045.63
2022-11-27T14:13:46.568Z,99046.13
2022-11-27T14:16:19.617Z,99049.94
2022-11-27T14:18:51.572Z,99055.59
2022-11-27T14:21:31.251Z,99056.94
2022-11-27T14:23:58.161Z,99049.88
2022-11-27T14:26:25.734Z,99053.31
2022-11-27T14:28:55.101Z,99050.69
2022-11-27T14:31:30.901Z,99052.31
2022-11-27T14:36:45.248Z,99060.72
2022-11-27T14:39:22.349Z,99047.63
2022-11-27T14:42:08.063Z,99058.13
2022-11-27T14:44:35.230Z,99059.28
2022-11-27T14:47:04.306Z,99062.75
2022-11-27T14:49:32.317Z,99061.66
2022-11-27T14:52:04.194Z,99060.97
2022-11-27T14:54:38.706Z,99064.25
2022-11-27T14:57:06.690Z,99066.41
2022-11-27T14:59:33.824Z,99062.31
2022-11-27T15:02:17.707Z,99061.81
2022-11-27T15:04:46.213Z,99063.37
2022-11-27T15:07:16.896Z,99066.88
2022-11-27T15:09:49.347Z,99068.34
2022-11-27T15:12:28.946Z,99068.12
2022-11-27T15:14:59.218Z,99064.69
2022-11-27T15:17:32.223Z,99068.25
2022-11-27T15:19:59.698Z,99064.34
2022-11-27T15:22:26.804Z,99066.88
2022-11-27T15:25:02.030Z,99064.16
2022-11-27T15:27:32.803Z,99065.88
2022-11-27T15:30:12.321Z,99064.34
2022-11-27T15:32:51.772Z,99060.88
2022-11-27T15:35:25.923Z,99059.34
2022-11-27T15:37:54.957Z,99055.59
2022-11-27T15:40:27.903Z,99064.81
2022-11-27T15:42:54.758Z,99062.78
2022-11-27T15:45:21.525Z,99059.19
2022-11-27T15:47:48.432Z,99059.06
2022-11-27T15:50:16.400Z,99062.31
2022-11-27T15:52:43.828Z,99053.12
2022-11-27T15:55:16.002Z,99057.81
2022-11-27T15:57:43.483Z,99061.72
2022-11-27T16:00:11.120Z,99060.66
2022-11-27T16:02:38.260Z,99049.03
2022-11-27T16:05:06.552Z,99055.34
2022-11-27T16:07:33.798Z,99045.06
2022-11-27T16:10:00.978Z,99054.88
2022-11-27T16:12:27.850Z,99053.63
2022-11-27T16:14:54.709Z,99050.69
2022-11-27T16:17:21.656Z,99062.19
2022-11-27T16:19:48.555Z,99063.97
2022-11-27T16:22:15.471Z,99062.03
2022-11-27T16:24:42.731Z,99060.88
2022-11-27T16:27:09.818Z,99056.09
2022-11-27T16:29:36.509Z,99056.22
2022-11-27T16:32:03.580Z,99054.94
2022-11-27T16:34:30.489Z,99059.78
2022-11-27T16:36:57.163Z,99060.31
2022-11-27T16:39:24.191Z,99048.91
2022-11-27T16:41:51.117Z,99049.94
2022-11-27T16:44:17.972Z,99043.44
2022-11-27T16:46:44.718Z,99040.63
2022-11-27T16:49:11.881Z,99049.72
2022-11-27T16:51:39.448Z,99043.44
2022-11-27T16:54:08.860Z,99046.91
2022-11-27T16:56:36.451Z,99039.13
2022-11-27T16:59:03.686Z,99039.59
2022-11-27T17:01:36.056Z,99039.91
2022-11-27T17:04:09.112Z,99028.84
2022-11-27T17:06:37.763Z,99029.00
2022-11-27T17:09:07.371Z,99027.34
2022-11-27T17:11:35.938Z,99020.63
2022-11-27T17:14:06.099Z,99021.09
2022-11-27T17:16:33.264Z,99018.13
2022-11-27T17:19:00.316Z,99026.56
2022-11-27T17:21:30.498Z,99029.66
2022-11-27T17:23:59.526Z,99034.22
2022-11-27T17:26:27.961Z,99038.19
2022-11-27T17:28:59.622Z,99034.91
2022-11-27T17:31:33.748Z,99035.13
2022-11-27T17:34:00.709Z,99033.34
2022-11-27T17:36:30.409Z,99029.16
2022-11-27T17:39:05.462Z,99025.75
2022-11-27T17:41:32.656Z,99018.87
2022-11-27T17:43:59.696Z,99030.84
2022-11-27T17:46:28.615Z,99025.56
2022-11-27T17:48:59.175Z,99014.28
2022-11-27T17:51:27.622Z,99004.47
2022-11-27T17:53:54.508Z,99016.13
2022-11-27T17:56:21.730Z,99018.28
2022-11-27T17:58:48.597Z,99011.19
2022-11-27T18:01:19.538Z,99012.84
2022-11-27T18:03:47.227Z,99005.28
2022-11-27T18:06:15.325Z,99008.72
2022-11-27T18:08:42.730Z,99008.06
2022-11-27T18:11:12.719Z,99005.25
2022-11-27T18:13:39.824Z,99002.47
2022-11-27T18:16:17.801Z,98998.34
2022-11-27T18:18:45.265Z,99005.75
2022-11-27T18:21:18.229Z,99003.37
2022-11-27T18:24:21.262Z,98986.75
2022-11-27T18:27:00.519Z,98989.72
2022-11-27T18:29:22.156Z,98995.25
2022-11-27T18:31:51.112Z,98989.13
2022-11-27T18:34:18.137Z,98985.50
2022-11-27T18:36:46.129Z,98982.66
2022-11-27T18:39:13.448Z,98972.69
2022-11-27T18:41:41.013Z,98972.63
2022-11-27T18:44:07.933Z,98977.38
2022-11-27T18:46:35.178Z,98973.41
2022-11-27T18:49:02.179Z,98968.66
2022-11-27T18:51:29.184Z,98969.72
2022-11-27T18:53:56.730Z,98974.59
2022-11-27T18:56:33.099Z,98972.09
2022-11-27T18:59:04.328Z,98972.06
2022-11-27T19:01:38.186Z,98970.91
2022-11-27T19:04:08.226Z,98963.41
2022-11-27T19:06:36.021Z,98968.03
2022-11-27T19:09:03.433Z,98970.56
2022-11-27T19:11:31.127Z,98968.00
2022-11-27T19:13:58.474Z,98968.06
2022-11-27T19:16:34.193Z,98969.16
2022-11-27T19:19:02.378Z,98978.25
2022-11-27T19:21:30.907Z,98974.22
2022-11-27T19:23:59.070Z,98967.59
2022-11-27T19:26:33.365Z,98972.66
2022-11-27T19:29:03.769Z,98977.34
2022-11-27T19:31:33.177Z,98982.22
2022-11-27T19:34:01.868Z,98984.34
2022-11-27T19:36:30.425Z,98973.91
2022-11-27T19:39:01.316Z,98975.62
2022-11-27T19:41:28.438Z,98983.38
2022-11-27T19:43:55.378Z,98971.78
2022-11-27T19:46:30.754Z,98973.75
2022-11-27T19:48:59.580Z,98981.28
2022-11-27T19:51:27.397Z,98978.09
2022-11-27T19:53:54.503Z,98970.13
2022-11-27T19:56:21.619Z,98975.84
2022-11-27T19:58:48.640Z,98959.47
2022-11-27T20:01:18.383Z,98957.75
2022-11-27T20:03:46.076Z,98957.47
2022-11-27T20:06:15.508Z,98959.06
2022-11-27T20:08:43.042Z,98954.00
2022-11-27T20:11:11.902Z,98960.44
2022-11-27T20:13:38.899Z,98963.13
2022-11-27T20:16:14.134Z,98957.66
2022-11-27T20:18:41.471Z,98947.13
2022-11-27T20:21:11.602Z,98952.00
2022-11-27T20:23:39.524Z,98946.94
2022-11-27T20:26:07.689Z,98954.50
2022-11-27T20:28:36.046Z,98956.59
2022-11-27T20:31:03.559Z,98954.56
2022-11-27T20:33:31.417Z,98948.97
2022-11-27T20:35:58.702Z,98960.75
2022-11-27T20:38:26.718Z,98948.19
2022-11-27T20:40:53.760Z,98949.25
2022-11-27T20:43:20.726Z,98951.28
2022-11-27T20:45:51.278Z,98959.63
2022-11-27T20:48:18.201Z,98947.38
2022-11-27T20:50:49.761Z,98940.22
2022-11-27T20:53:18.173Z,98950.56
2022-11-27T20:55:45.361Z,98944.41
2022-11-27T20:58:12.286Z,98939.44
2022-11-27T21:00:40.566Z,98944.25
2022-11-27T21:03:07.692Z,98941.81
2022-11-27T21:05:34.577Z,98932.34
2022-11-27T21:08:01.527Z,98937.09
2022-11-27T21:10:28.563Z,98937.78
2022-11-27T21:12:55.466Z,98929.97
2022-11-27T21:15:22.365Z,98932.22
2022-11-27T21:17:49.257Z,98929.88
2022-11-27T21:20:16.264Z,98930.44
2022-11-27T21:22:44.191Z,98932.63
2022-11-27T21:25:11.145Z,98935.75
2022-11-27T21:27:38.271Z,98921.91
2022-11-27T21:30:06.445Z,98930.72
2022-11-27T21:32:33.482Z,98930.22
2022-11-27T21:35:00.347Z,98928.81
2022-11-27T21:37:27.293Z,98921.22
2022-11-27T21:39:54.159Z,98927.69
2022-11-27T21:42:21.056Z,98923.91
2022-11-27T21:44:47.911Z,98917.84
2022-11-27T21:47:14.832Z,98922.34
2022-11-27T21:49:42.146Z,98915.94
2022-11-27T21:52:09.004Z,98920.03
2022-11-27T21:54:36.644Z,98920.31
2022-11-27T21:57:03.554Z,98920.31
2022-11-27T21:59:30.428Z,98907.50
2022-11-27T22:01:57.527Z,98908.50
2022-11-27T22:04:25.355Z,98916.84
2022-11-27T22:06:52.402Z,98903.50
2022-11-27T22:09:19.398Z,98902.16
2022-11-27T22:11:47.006Z,98897.59
2022-11-27T22:14:16.026Z,98901.25
2022-11-27T22:16:45.991Z,98902.22
2022-11-27T22:19:14.586Z,98902.13
2022-11-27T22:21:41.974Z,98892.88
2022-11-27T22:24:14.859Z,98892.44
2022-11-27T22:26:45.124Z,98882.63
2022-11-27T22:29:12.017Z,98886.97
2022-11-27T22:31:38.918Z,98888.47
2022-11-27T22:34:05.831Z,98885.63
2022-11-27T22:36:34.222Z,98877.81
2022-11-27T22:39:06.208Z,98875.50
2022-11-27T22:41:36.572Z,98883.56
2022-11-27T22:44:11.971Z,98874.03
2022-11-27T22:46:40.933Z,98879.19
2022-11-27T22:49:08.604Z,98878.72
2022-11-27T22:51:36.553Z,98872.63
2022-11-27T22:54:04.817Z,98872.31
2022-11-27T22:56:33.887Z,98871.19
2022-11-27T22:59:30.470Z,98871.56
2022-11-27T23:01:48.824Z,98859.91
2022-11-27T23:04:16.139Z,98864.94
2022-11-27T23:06:47.565Z,98861.56
2022-11-27T23:09:15.555Z,98861.88
2022-11-27T23:11:42.481Z,98856.13
2022-11-27T23:14:09.419Z,98862.03
2022-11-27T23:16:36.614Z,98862.72
2022-11-27T23:19:03.749Z,98863.19
2022-11-27T23:21:30.791Z,98863.25
2022-11-27T23:23:57.784Z,98857.09
2022-11-27T23:26:24.653Z,98863.50
2022-11-27T23:28:53.620Z,98862.25
2022-11-27T23:31:31.662Z,98858.00
2022-11-27T23:34:01.365Z,98865.16
2022-11-27T23:36:29.280Z,98857.81
2022-11-27T23:38:56.362Z,98859.03
2022-11-27T23:41:24.798Z,98843.31
2022-11-27T23:43:52.815Z,98840.41
2022-11-27T23:46:21.461Z,98834.94
2022-11-27T23:48:48.873Z,98836.06
2022-11-27T23:51:20.920Z,98836.25
2022-11-27T23:53:48.369Z,98831.84
2022-11-27T23:56:23.206Z,98836.47
2022-11-27T23:58:50.185Z,98833.97
